Time;durP1;ratioP1;P1;durP2;ratioP2;P2;SDS_P1;SDS_P2;PMS_P1;PMS_P2;Temp;Humidity;BMP_temperature;BMP_pressure;BME280_temperature;BME280_humidity;BME280_pressure;Samples;Min_cycle;Max_cycle;Signal;HPM_P1;HPM_P2
2022/11/16 00:01:33;;;;;;;3.13;1.00;;;20.40;43.00;;;;;;5074492;28;20194;-70
2022/11/16 00:04:03;;;;;;;4.27;1.20;;;20.20;43.50;;;;;;5073830;28;20313;-70
2022/11/16 00:06:31;;;;;;;3.30;0.80;;;20.30;43.50;;;;;;5074333;28;20175;-70
2022/11/16 00:11:50;;;;;;;2.73;0.70;;;21.80;42.60;;;;;;5076399;28;20229;-72
2022/11/16 00:14:20;;;;;;;2.83;1.03;;;22.10;45.00;;;;;;5075497;28;20180;-68
2022/11/16 00:16:48;;;;;;;2.30;0.80;;;22.50;42.80;;;;;;5074288;28;20207;-69
2022/11/16 00:19:17;;;;;;;1.43;0.70;;;22.80;43.60;;;;;;5074097;28;20226;-68
2022/11/16 00:21:45;;;;;;;2.27;1.07;;;23.00;45.00;;;;;;5073949;28;20174;-68
2022/11/16 00:24:14;;;;;;;0.80;0.60;;;22.40;38.10;;;;;;5074026;28;20240;-68
2022/11/16 00:26:43;;;;;;;2.83;1.00;;;22.10;37.90;;;;;;5074074;28;20638;-68
2022/11/16 00:29:21;;;;;;;2.73;0.57;;;21.60;36.70;;;;;;5073809;28;20179;-68
2022/11/16 00:31:49;;;;;;;2.30;0.87;;;21.70;40.50;;;;;;5073819;28;20226;-68
2022/11/16 00:34:17;;;;;;;2.90;0.80;;;21.90;39.00;;;;;;5073628;28;20267;-68
2022/11/16 00:36:46;;;;;;;0.83;0.60;;;21.90;38.10;;;;;;5073803;28;20187;-68
2022/11/16 00:39:15;;;;;;;1.70;0.60;;;21.60;39.40;;;;;;5073606;28;20218;-68
2022/11/16 00:41:44;;;;;;;2.63;0.60;;;21.40;38.70;;;;;;5073693;28;20181;-68
2022/11/16 00:44:16;;;;;;;2.77;0.77;;;21.20;40.00;;;;;;5073565;28;20189;-68
2022/11/16 00:46:44;;;;;;;2.00;0.70;;;21.10;41.80;;;;;;5073515;28;20175;-68
2022/11/16 00:49:12;;;;;;;3.47;0.73;;;20.80;40.50;;;;;;5073685;28;20583;-67
2022/11/16 00:51:40;;;;;;;1.13;0.60;;;20.80;38.60;;;;;;5073252;28;20637;-68
2022/11/16 00:54:08;;;;;;;2.20;0.60;;;20.80;33.80;;;;;;5073552;28;20172;-67
2022/11/16 00:56:37;;;;;;;1.40;0.50;;;20.90;31.30;;;;;;5073281;28;20176;-68
2022/11/16 00:59:05;;;;;;;2.47;0.70;;;20.80;29.80;;;;;;5073225;28;20221;-68
2022/11/16 01:01:34;;;;;;;1.43;0.50;;;20.60;34.50;;;;;;5073310;28;20170;-68
2022/11/16 01:04:02;;;;;;;2.60;0.73;;;20.70;36.90;;;;;;5073074;28;20277;-67
2022/11/16 01:06:30;;;;;;;1.57;0.50;;;20.40;33.00;;;;;;5073330;28;20176;-68
2022/11/16 01:08:58;;;;;;;1.53;0.63;;;20.10;32.90;;;;;;5073219;28;20247;-67
2022/11/16 01:14:12;;;;;;;2.33;0.60;;;20.30;36.10;;;;;;5073650;28;20207;-67
2022/11/16 01:16:39;;;;;;;2.53;0.73;;;20.30;33.70;;;;;;5073311;28;20183;-67
2022/11/16 01:19:08;;;;;;;1.43;0.67;;;20.40;37.10;;;;;;5073096;28;20205;-67
2022/11/16 01:21:36;;;;;;;2.53;0.70;;;20.90;35.10;;;;;;5073071;28;20221;-67
2022/11/16 01:24:04;;;;;;;1.20;0.50;;;21.10;36.60;;;;;;5075814;28;20206;-68
2022/11/16 01:26:32;;;;;;;0.87;0.60;;;20.60;32.20;;;;;;5079857;28;20172;-69
2022/11/16 01:29:00;;;;;;;2.83;0.90;;;20.60;36.60;;;;;;5079758;28;20175;-68
2022/11/16 01:31:27;;;;;;;2.00;0.50;;;20.50;33.30;;;;;;5079781;28;20181;-68
2022/11/16 01:33:55;;;;;;;1.50;0.50;;;20.70;32.50;;;;;;5079591;28;20171;-68
2022/11/16 01:36:23;;;;;;;2.20;0.73;;;21.70;34.70;;;;;;5079635;28;20203;-68
2022/11/16 01:38:51;;;;;;;1.60;0.50;;;22.40;33.80;;;;;;5079558;28;20283;-68
2022/11/16 01:41:22;;;;;;;1.73;0.97;;;23.20;34.10;;;;;;5079647;28;20176;-68
2022/11/16 01:44:03;;;;;;;4.33;0.80;;;23.40;30.70;;;;;;5080034;28;20176;-68
2022/11/16 01:46:31;;;;;;;6.03;0.83;;;23.90;36.70;;;;;;5079492;28;20262;-68
2022/11/16 01:49:20;;;;;;;1.13;0.53;;;24.60;35.80;;;;;;5079608;28;20180;-68
2022/11/16 01:51:58;;;;;;;1.50;0.60;;;23.90;31.20;;;;;;5079585;28;20170;-71
2022/11/16 01:54:28;;;;;;;2.30;0.60;;;23.30;31.70;;;;;;5079628;28;20171;-71
2022/11/16 01:57:00;;;;;;;1.57;0.53;;;22.30;30.30;;;;;;5079341;28;20541;-71
2022/11/16 01:59:28;;;;;;;4.10;0.73;;;21.60;28.60;;;;;;5079544;28;20214;-72
2022/11/16 02:01:58;;;;;;;2.83;0.80;;;21.40;29.10;;;;;;5079233;28;20175;-72
2022/11/16 02:04:26;;;;;;;2.67;0.77;;;21.10;30.00;;;;;;5079222;28;20291;-72
2022/11/16 02:07:05;;;;;;;1.20;0.73;;;21.90;32.40;;;;;;5079349;28;20600;-72
2022/11/16 02:09:53;;;;;;;29.30;1.30;;;21.70;31.40;;;;;;5079546;28;20168;-72
2022/11/16 02:12:52;;;;;;;2.93;0.53;;;21.60;33.10;;;;;;5079166;28;20212;-72
2022/11/16 02:15:58;;;;;;;6.43;0.70;;;21.60;30.90;;;;;;5079366;28;20241;-70
2022/11/16 02:18:45;;;;;;;1.87;0.70;;;22.40;29.90;;;;;;5056982;28;20593;-72
2022/11/16 02:21:23;;;;;;;1.87;0.50;;;23.00;28.50;;;;;;5077800;28;20198;-71
2022/11/16 02:24:03;;;;;;;2.90;0.60;;;22.50;26.80;;;;;;5079100;28;20251;-73
2022/11/16 02:26:54;;;;;;;1.83;0.57;;;22.30;28.90;;;;;;5094921;28;20584;-73
2022/11/16 02:29:24;;;;;;;2.87;0.80;;;22.20;29.70;;;;;;5079140;28;20247;-72
2022/11/16 02:31:59;;;;;;;6.93;0.83;;;22.10;30.30;;;;;;5079260;28;20184;-72
2022/11/16 02:34:38;;;;;;;1.10;0.57;;;20.90;41.90;;;;;;5079078;28;20167;-70
2022/11/16 02:37:10;;;;;;;2.93;1.27;;;20.00;47.70;;;;;;5074966;28;20223;-69
2022/11/16 02:39:40;;;;;;;1.97;0.53;;;19.30;61.60;;;;;;5075705;28;20207;-69
2022/11/16 02:42:14;;;;;;;7.27;0.63;;;18.70;76.10;;;;;;5075796;28;20176;-69
2022/11/16 02:44:45;;;;;;;4.77;0.83;;;18.90;92.50;;;;;;5075573;28;20258;-69
2022/11/16 02:47:24;;;;;;;0.83;0.37;;;19.10;94.40;;;;;;5075758;28;20171;-69
2022/11/16 02:49:57;;;;;;;2.33;0.67;;;19.10;95.90;;;;;;5075653;28;20176;-69
2022/11/16 02:52:27;;;;;;;3.60;0.40;;;19.40;97.60;;;;;;5091481;28;20180;-69
2022/11/16 02:54:55;;;;;;;1.20;0.40;;;19.00;97.20;;;;;;5075636;28;20176;-69
2022/11/16 02:57:38;;;;;;;0.77;0.40;;;18.60;92.60;;;;;;5075434;28;20284;-69
2022/11/16 03:00:10;;;;;;;3.30;0.50;;;18.60;90.60;;;;;;5075734;28;20180;-69
2022/11/16 03:03:21;;;;;;;0.40;0.30;;;18.30;88.60;;;;;;5075209;28;20218;-69
2022/11/16 03:06:00;;;;;;;3.30;0.50;;;18.20;91.60;;;;;;5075374;28;20582;-69
2022/11/16 03:09:08;;;;;;;1.03;0.50;;;17.50;93.00;;;;;;5090956;28;20191;-69
2022/11/16 03:14:39;;;;;;;0.63;0.30;;;16.90;91.90;;;;;;5075673;28;20179;-69
2022/11/16 03:17:13;;;;;;;0.90;0.40;;;16.90;92.70;;;;;;5075380;28;20202;-69
2022/11/16 03:19:57;;;;;;;0.63;0.50;;;17.20;90.90;;;;;;5075214;28;20176;-70
2022/11/16 03:22:33;;;;;;;0.77;0.40;;;17.20;91.80;;;;;;5074944;28;20590;-71
2022/11/16 03:25:02;;;;;;;0.70;0.40;;;17.30;91.90;;;;;;5075075;28;20191;-71
2022/11/16 03:28:19;;;;;;;1.80;0.50;;;17.20;90.20;;;;;;5074945;28;20267;-71
2022/11/16 03:30:59;;;;;;;0.47;0.40;;;17.40;83.00;;;;;;5073483;28;20192;-69
2022/11/16 03:33:49;;;;;;;0.40;0.40;;;17.30;79.60;;;;;;5074846;28;20180;-71
2022/11/16 03:36:39;;;;;;;0.63;0.50;;;17.90;76.90;;;;;;5075171;28;20597;-71
2022/11/16 03:39:18;;;;;;;1.90;0.40;;;18.00;73.80;;;;;;5074740;28;20573;-69
2022/11/16 03:41:48;;;;;;;4.83;0.50;;;18.40;74.60;;;;;;5074717;28;20646;-71
2022/11/16 03:44:18;;;;;;;0.83;0.40;;;18.10;76.60;;;;;;5074667;28;20199;-73
2022/11/16 03:46:47;;;;;;;0.63;0.40;;;18.80;71.90;;;;;;5074239;28;20580;-69
2022/11/16 03:49:14;;;;;;;0.30;0.30;;;19.40;77.70;;;;;;5074644;28;20173;-69
2022/11/16 03:51:42;;;;;;;0.67;0.67;;;19.50;66.50;;;;;;5074450;28;20267;-73
2022/11/16 03:54:10;;;;;;;1.83;0.40;;;19.90;65.10;;;;;;5074510;28;20638;-71
2022/11/16 03:56:38;;;;;;;0.60;0.40;;;20.40;61.50;;;;;;5074578;28;20176;-72
2022/11/16 03:59:06;;;;;;;1.03;0.40;;;20.20;59.00;;;;;;5089862;28;20685;-72
2022/11/16 04:01:33;;;;;;;0.90;0.30;;;20.80;64.30;;;;;;5074224;28;20175;-71
2022/11/16 04:04:01;;;;;;;0.60;0.50;;;20.80;57.80;;;;;;5073974;28;20255;-68
2022/11/16 04:25:57;;;;;;;1.93;0.77;;;20.90;53.00;;;;;;5074083;28;20273;-69
2022/11/16 04:28:30;;;;;;;0.40;0.40;;;20.80;52.40;;;;;;5073585;28;20176;-72
2022/11/16 04:39:21;;;;;;;0.50;0.50;;;21.00;48.90;;;;;;5073944;28;20229;-69
2022/11/16 04:47:24;;;;;;;0.40;0.30;;;21.20;41.40;;;;;;5073793;28;20190;-69
2022/11/16 04:49:52;;;;;;;2.20;0.30;;;21.30;42.00;;;;;;5073443;28;20258;-68
2022/11/16 04:52:20;;;;;;;1.50;0.30;;;21.30;41.80;;;;;;5073421;28;20179;-68
2022/11/16 04:54:48;;;;;;;1.73;0.50;;;21.20;41.90;;;;;;5073523;28;20262;-69
2022/11/16 04:57:16;;;;;;;0.43;0.40;;;20.90;42.50;;;;;;5073614;28;20174;-68
2022/11/16 04:59:44;;;;;;;1.10;0.40;;;20.90;43.50;;;;;;5071590;28;20186;-68
2022/11/16 05:02:12;;;;;;;0.80;0.50;;;21.00;43.90;;;;;;5073085;28;20655;-67
2022/11/16 05:04:44;;;;;;;0.40;0.40;;;20.70;44.50;;;;;;5073306;28;20321;-68
2022/11/16 05:07:14;;;;;;;2.97;0.60;;;20.90;44.40;;;;;;5088828;28;20550;-69
2022/11/16 05:09:47;;;;;;;0.70;0.40;;;21.10;42.90;;;;;;5073250;28;20189;-69
2022/11/16 05:12:23;;;;;;;0.30;0.30;;;20.70;42.60;;;;;;5088914;28;20176;-68
2022/11/16 05:14:52;;;;;;;2.13;0.47;;;20.40;42.80;;;;;;5073706;28;20209;-72
2022/11/16 05:17:20;;;;;;;0.47;0.40;;;19.60;42.40;;;;;;5073230;28;20629;-71
2022/11/16 05:22:34;;;;;;;2.23;0.50;;;19.00;45.40;;;;;;5073401;28;20183;-72
2022/11/16 05:25:03;;;;;;;3.70;0.60;;;18.70;46.00;;;;;;5073367;28;20180;-71
2022/11/16 05:27:31;;;;;;;1.93;0.50;;;17.90;45.20;;;;;;5073281;28;20225;-71
2022/11/16 05:29:59;;;;;;;0.60;0.40;;;17.50;47.10;;;;;;5073394;28;20172;-71
2022/11/16 05:32:27;;;;;;;3.23;0.70;;;17.10;49.50;;;;;;5073215;28;20215;-68
2022/11/16 05:34:55;;;;;;;4.60;0.60;;;17.00;52.10;;;;;;5073203;28;20198;-68
2022/11/16 05:37:26;;;;;;;1.47;0.70;;;16.70;84.10;;;;;;5073015;28;20182;-69
2022/11/16 05:39:55;;;;;;;2.57;0.50;;;16.60;99.90;;;;;;5073195;28;20247;-68
2022/11/16 05:42:23;;;;;;;0.80;0.57;;;16.40;99.90;;;;;;5071605;28;20191;-69
2022/11/16 05:44:51;;;;;;;2.10;0.70;;;16.50;99.90;;;;;;5073013;28;20202;-67
2022/11/16 05:47:19;;;;;;;0.80;0.40;;;16.80;99.90;;;;;;5073201;28;20176;-68
2022/11/16 05:49:47;;;;;;;1.10;0.50;;;17.00;99.90;;;;;;5073238;28;20537;-68
2022/11/16 05:52:14;;;;;;;0.57;0.50;;;17.00;99.90;;;;;;5088449;28;20184;-69
2022/11/16 05:54:42;;;;;;;0.57;0.40;;;17.00;99.90;;;;;;5072946;28;20208;-68
2022/11/16 05:57:10;;;;;;;3.37;0.43;;;17.00;99.90;;;;;;5072702;28;20266;-67
2022/11/16 05:59:38;;;;;;;2.90;0.43;;;17.10;97.90;;;;;;5072837;28;20262;-67
2022/11/16 06:02:06;;;;;;;0.37;0.37;;;17.70;99.90;;;;;;5072739;28;20540;-69
2022/11/16 06:04:33;;;;;;;2.77;0.43;;;18.40;89.00;;;;;;5072547;28;20592;-68
2022/11/16 06:07:01;;;;;;;1.00;0.40;;;19.20;90.00;;;;;;5072972;28;20172;-68
2022/11/16 06:09:29;;;;;;;1.23;0.50;;;19.70;96.80;;;;;;5072770;28;20176;-68
2022/11/16 06:11:57;;;;;;;1.73;0.80;;;20.00;94.60;;;;;;5076627;28;20225;-67
2022/11/16 06:14:25;;;;;;;3.07;0.70;;;20.20;99.90;;;;;;5076273;28;20771;-68
2022/11/16 06:16:53;;;;;;;3.77;0.90;;;20.40;99.90;;;;;;5076556;28;20254;-68
2022/11/16 06:19:20;;;;;;;2.63;0.60;;;20.00;99.90;;;;;;5076133;28;20365;-69
2022/11/16 06:21:48;;;;;;;2.80;0.60;;;19.40;99.90;;;;;;5076224;28;20582;-68
2022/11/16 06:24:16;;;;;;;5.40;0.90;;;18.80;99.90;;;;;;5076394;28;20175;-69
2022/11/16 06:26:45;;;;;;;2.00;0.60;;;18.40;99.90;;;;;;5076304;28;20237;-68
2022/11/16 06:29:13;;;;;;;2.50;0.80;;;17.90;99.90;;;;;;5076209;28;20550;-68
2022/11/16 06:31:41;;;;;;;2.43;0.80;;;17.60;99.90;;;;;;5076449;28;20680;-69
2022/11/16 06:34:09;;;;;;;2.20;0.70;;;17.20;99.90;;;;;;5076140;28;20173;-69
2022/11/16 06:36:37;;;;;;;5.20;0.90;;;17.10;99.90;;;;;;5076186;28;20339;-68
2022/11/16 06:39:05;;;;;;;8.93;1.20;;;17.30;99.90;;;;;;5075821;28;20215;-68
2022/11/16 06:41:37;;;;;;;3.00;0.80;;;17.70;99.90;;;;;;5076071;28;20259;-68
2022/11/16 06:44:05;;;;;;;2.77;0.67;;;17.60;99.90;;;;;;5075871;28;20176;-68
2022/11/16 06:46:33;;;;;;;8.10;1.10;;;17.40;99.90;;;;;;5075926;28;20647;-68
2022/11/16 06:49:05;;;;;;;3.83;0.80;;;17.10;99.90;;;;;;5075769;28;20554;-68
2022/11/16 06:51:33;;;;;;;4.43;0.90;;;16.80;99.90;;;;;;5075793;28;20168;-67
2022/11/16 06:54:01;;;;;;;2.90;0.83;;;16.80;99.90;;;;;;5075957;28;20259;-68
2022/11/16 06:56:29;;;;;;;2.67;0.60;;;16.70;99.90;;;;;;5075910;28;20254;-70
2022/11/16 06:58:57;;;;;;;2.60;0.70;;;16.80;99.90;;;;;;5075725;28;20260;-71
2022/11/16 07:01:25;;;;;;;5.13;0.93;;;16.60;99.90;;;;;;5075745;28;20179;-70
2022/11/16 07:03:52;;;;;;;9.43;1.00;;;16.50;99.90;;;;;;5075087;28;20239;-69
2022/11/16 07:06:20;;;;;;;1.73;0.60;;;16.60;99.90;;;;;;5075615;28;20214;-68
2022/11/16 07:08:48;;;;;;;5.43;1.10;;;16.70;99.90;;;;;;5075687;28;20172;-69
2022/11/16 07:11:16;;;;;;;1.97;0.73;;;16.60;99.90;;;;;;5075573;28;20212;-68
2022/11/16 07:13:45;;;;;;;1.70;0.63;;;16.70;99.90;;;;;;5075884;28;20180;-70
2022/11/16 07:16:13;;;;;;;3.60;0.80;;;16.90;99.90;;;;;;5091069;28;20176;-70
2022/11/16 07:18:43;;;;;;;4.90;0.97;;;16.90;99.90;;;;;;5075320;28;20553;-72
2022/11/16 07:21:14;;;;;;;5.40;0.80;;;16.70;99.90;;;;;;5075049;28;20203;-72
2022/11/16 07:23:43;;;;;;;3.97;1.13;;;16.60;99.90;;;;;;5075107;28;20655;-70
2022/11/16 07:26:11;;;;;;;4.70;0.90;;;16.60;99.90;;;;;;5075278;28;20538;-69
2022/11/16 07:28:39;;;;;;;2.87;0.80;;;16.40;99.90;;;;;;5075255;28;20222;-70
2022/11/16 07:31:09;;;;;;;3.93;0.97;;;16.20;99.90;;;;;;5075518;28;20218;-70
2022/11/16 07:33:37;;;;;;;1.73;0.80;;;16.10;99.90;;;;;;5075236;28;20180;-70
2022/11/16 07:36:08;;;;;;;5.13;0.90;;;16.00;99.90;;;;;;5075185;28;20172;-69
2022/11/16 07:38:36;;;;;;;1.43;0.87;;;16.00;99.90;;;;;;5074764;28;20314;-71
2022/11/16 07:41:07;;;;;;;2.00;0.60;;;16.10;99.90;;;;;;5074840;28;20182;-71
2022/11/16 07:43:35;;;;;;;6.90;1.00;;;16.00;99.90;;;;;;5075065;28;20268;-72
2022/11/16 07:46:23;;;;;;;2.33;0.80;;;16.10;99.90;;;;;;5074776;28;20221;-68
2022/11/16 07:48:50;;;;;;;4.77;0.97;;;16.10;99.90;;;;;;5073590;28;20230;-68
2022/11/16 07:51:19;;;;;;;2.40;0.90;;;16.10;99.90;;;;;;5074571;28;20190;-69
2022/11/16 07:53:56;;;;;;;4.50;1.00;;;16.20;99.90;;;;;;5074989;28;20244;-71
2022/11/16 07:56:24;;;;;;;3.57;0.97;;;16.10;99.90;;;;;;5074740;28;20178;-71
2022/11/16 07:58:52;;;;;;;3.53;0.80;;;16.10;99.90;;;;;;5074829;28;20208;-70
2022/11/16 08:01:20;;;;;;;2.13;0.97;;;16.10;99.90;;;;;;5089927;28;20199;-68
2022/11/16 08:03:51;;;;;;;5.43;1.17;;;16.10;99.90;;;;;;5089635;28;20239;-68
2022/11/16 08:06:31;;;;;;;4.73;1.00;;;16.20;99.90;;;;;;5074494;28;20199;-69
2022/11/16 08:08:59;;;;;;;2.43;0.80;;;16.10;99.90;;;;;;5089793;28;20183;-70
2022/11/16 08:11:27;;;;;;;3.17;0.83;;;16.10;99.90;;;;;;5074354;28;20577;-72
2022/11/16 08:13:56;;;;;;;3.93;0.90;;;15.90;99.90;;;;;;5074436;28;20575;-71
2022/11/16 08:16:24;;;;;;;1.07;0.63;;;15.90;99.90;;;;;;5089954;28;20178;-69
2022/11/16 08:18:52;;;;;;;1.50;0.70;;;15.80;99.90;;;;;;5074181;28;20214;-70
2022/11/16 08:21:20;;;;;;;3.30;1.10;;;15.70;99.90;;;;;;5074344;28;20676;-72
2022/11/16 08:23:48;;;;;;;2.70;0.80;;;15.60;99.90;;;;;;5074101;28;20232;-72
2022/11/16 08:26:18;;;;;;;4.57;0.80;;;15.40;99.90;;;;;;5074129;28;20287;-72
2022/11/16 08:28:52;;;;;;;2.90;0.80;;;15.20;99.90;;;;;;5074189;28;20281;-70
2022/11/16 08:31:26;;;;;;;3.83;0.80;;;15.20;99.90;;;;;;5074604;28;20243;-67
2022/11/16 08:33:54;;;;;;;1.13;0.60;;;15.10;99.90;;;;;;5073848;28;20176;-68
2022/11/16 08:36:22;;;;;;;0.70;0.70;;;15.10;99.90;;;;;;5074350;28;20179;-71
2022/11/16 08:38:51;;;;;;;2.70;0.80;;;15.00;99.90;;;;;;5073742;28;20329;-72
2022/11/16 08:41:20;;;;;;;0.93;0.50;;;15.00;99.90;;;;;;5073898;28;20200;-72
2022/11/16 08:43:49;;;;;;;2.20;0.80;;;15.00;99.90;;;;;;5073765;28;20168;-71
2022/11/16 08:46:17;;;;;;;4.47;0.57;;;15.10;99.90;;;;;;5089641;28;20664;-71
2022/11/16 08:48:45;;;;;;;4.60;0.60;;;15.00;99.90;;;;;;5073707;28;20228;-70
2022/11/16 08:51:18;;;;;;;0.93;0.60;;;15.10;99.90;;;;;;5073713;28;20715;-70
2022/11/16 08:53:47;;;;;;;1.20;0.60;;;15.10;99.90;;;;;;5089410;28;20236;-72
2022/11/16 08:56:17;;;;;;;1.13;0.63;;;15.00;99.90;;;;;;5073957;28;20179;-71
2022/11/16 08:58:49;;;;;;;0.87;0.57;;;15.00;99.90;;;;;;5074064;28;20212;-71
2022/11/16 09:01:20;;;;;;;1.87;0.70;;;15.00;99.90;;;;;;5073978;28;20182;-69
2022/11/16 09:03:48;;;;;;;1.17;0.50;;;15.00;99.90;;;;;;5073380;28;20219;-67
2022/11/16 09:06:16;;;;;;;1.90;0.80;;;14.90;99.90;;;;;;5089189;28;20190;-68
2022/11/16 09:08:46;;;;;;;1.20;0.80;;;14.80;99.90;;;;;;5073459;28;20644;-67
2022/11/16 09:11:16;;;;;;;1.43;0.53;;;14.60;99.90;;;;;;5073702;28;20648;-68
2022/11/16 09:13:46;;;;;;;1.03;0.90;;;14.60;99.90;;;;;;5073877;28;20589;-68
2022/11/16 09:16:19;;;;;;;1.93;0.50;;;14.70;99.90;;;;;;5073814;28;20229;-68
2022/11/16 09:18:49;;;;;;;1.93;0.67;;;14.60;99.90;;;;;;5073752;28;20224;-69
2022/11/16 09:21:22;;;;;;;2.37;0.70;;;14.70;99.90;;;;;;5073678;28;20567;-70
2022/11/16 09:23:51;;;;;;;0.80;0.60;;;14.60;99.90;;;;;;5073495;28;20183;-68
2022/11/16 09:26:21;;;;;;;1.97;1.00;;;14.50;99.90;;;;;;5073512;28;20183;-68
2022/11/16 09:28:55;;;;;;;1.30;0.80;;;14.50;99.90;;;;;;5073274;28;20262;-67
2022/11/16 09:31:26;;;;;;;2.23;0.60;;;14.40;99.90;;;;;;5073492;28;20210;-67
2022/11/16 09:33:58;;;;;;;1.70;0.70;;;14.30;99.90;;;;;;5073827;28;20250;-67
2022/11/16 09:36:27;;;;;;;3.70;1.00;;;14.20;99.90;;;;;;5073643;28;20183;-68
2022/11/16 09:38:56;;;;;;;1.87;0.80;;;14.20;99.90;;;;;;5073345;28;20207;-67
2022/11/16 09:41:46;;;;;;;1.97;0.67;;;14.20;99.90;;;;;;5073809;28;20176;-68
2022/11/16 09:44:37;;;;;;;3.10;0.80;;;14.00;99.90;;;;;;5073540;28;20551;-69
2022/11/16 09:47:15;;;;;;;1.27;0.50;;;13.90;99.90;;;;;;5077667;28;20179;-68
2022/11/16 09:49:59;;;;;;;1.37;0.60;;;13.80;99.90;;;;;;5077350;28;20181;-69
2022/11/16 09:52:35;;;;;;;2.17;0.60;;;13.70;99.90;;;;;;5077469;28;20533;-70
2022/11/16 09:55:16;;;;;;;2.47;0.80;;;13.60;99.90;;;;;;5077725;28;20202;-72
2022/11/16 09:57:45;;;;;;;3.47;0.70;;;13.40;99.90;;;;;;5077216;28;20620;-70
2022/11/16 10:00:19;;;;;;;2.77;0.73;;;13.30;99.90;;;;;;5077419;28;20180;-71
2022/11/16 10:02:55;;;;;;;3.80;0.70;;;13.40;99.90;;;;;;5077343;28;20317;-72
2022/11/16 10:05:32;;;;;;;4.63;0.70;;;13.30;99.90;;;;;;5077550;28;20174;-72
2022/11/16 10:08:18;;;;;;;1.53;0.67;;;13.10;99.90;;;;;;5077624;28;20202;-69
2022/11/16 10:11:26;;;;;;;2.37;0.70;;;13.00;99.90;;;;;;5077614;28;20171;-71
2022/11/16 10:14:24;;;;;;;1.23;0.70;;;12.90;99.90;;;;;;5093146;28;20186;-72
2022/11/16 10:17:01;;;;;;;1.00;0.70;;;12.80;99.90;;;;;;5076634;28;20187;-72
2022/11/16 10:19:37;;;;;;;2.50;0.83;;;12.80;99.90;;;;;;5077413;28;20213;-70
2022/11/16 10:22:31;;;;;;;2.60;0.90;;;12.80;99.90;;;;;;5076724;28;20173;-70
2022/11/16 10:25:06;;;;;;;4.50;1.37;;;12.80;99.90;;;;;;5077125;28;20212;-71
2022/11/16 10:27:46;;;;;;;1.00;0.83;;;12.80;99.90;;;;;;5076987;28;20183;-71
2022/11/16 10:30:21;;;;;;;2.90;0.80;;;12.80;99.90;;;;;;5076998;28;20552;-71
2022/11/16 10:33:10;;;;;;;1.90;1.00;;;12.80;99.90;;;;;;5077069;28;20318;-71
2022/11/16 10:35:52;;;;;;;3.93;0.90;;;12.80;99.90;;;;;;5076514;28;20184;-72
2022/11/16 10:38:32;;;;;;;1.53;0.83;;;12.80;99.90;;;;;;5076611;28;20208;-70
2022/11/16 10:41:24;;;;;;;3.37;1.10;;;12.90;99.90;;;;;;5076327;28;20189;-70
2022/11/16 10:43:53;;;;;;;4.50;0.90;;;12.90;99.90;;;;;;5075453;28;20642;-71
2022/11/16 10:46:37;;;;;;;2.60;0.97;;;12.90;99.90;;;;;;5076040;28;20201;-71
2022/11/16 10:49:15;;;;;;;2.27;1.00;;;12.90;99.90;;;;;;5076071;28;20166;-71
2022/11/16 10:51:43;;;;;;;1.00;0.83;;;12.90;99.90;;;;;;5076004;28;20181;-71
2022/11/16 10:54:16;;;;;;;1.67;1.17;;;12.90;99.90;;;;;;5076187;28;20184;-70
2022/11/16 10:56:48;;;;;;;2.33;1.00;;;12.90;99.90;;;;;;5074714;28;20186;-71
2022/11/16 10:59:19;;;;;;;1.77;0.90;;;12.90;99.90;;;;;;5075708;28;20213;-67
2022/11/16 11:01:56;;;;;;;0.97;0.87;;;12.80;99.90;;;;;;5075724;28;20166;-68
2022/11/16 11:04:30;;;;;;;0.87;0.70;;;12.80;99.90;;;;;;5075344;28;20234;-69
2022/11/16 11:07:02;;;;;;;1.00;0.80;;;12.80;99.90;;;;;;5075556;28;20170;-69
2022/11/16 11:09:37;;;;;;;1.57;1.00;;;12.70;99.90;;;;;;5075551;28;20203;-69
2022/11/16 11:15:12;;;;;;;1.90;1.17;;;12.60;99.90;;;;;;5075524;28;20565;-71
2022/11/16 11:17:48;;;;;;;2.57;1.00;;;12.60;99.90;;;;;;5075395;28;20307;-71
2022/11/16 11:20:16;;;;;;;2.40;1.20;;;12.50;99.90;;;;;;5075620;28;20237;-68
2022/11/16 11:22:54;;;;;;;3.50;0.90;;;12.50;99.90;;;;;;5075189;28;20616;-68
2022/11/16 11:25:34;;;;;;;2.03;1.27;;;12.40;99.90;;;;;;5075348;28;20652;-67
2022/11/16 11:28:07;;;;;;;1.57;1.10;;;12.40;99.90;;;;;;5075021;28;20177;-69
2022/11/16 11:30:36;;;;;;;1.70;1.17;;;12.30;99.90;;;;;;5090731;28;20252;-68
2022/11/16 11:33:11;;;;;;;2.20;0.90;;;12.20;99.90;;;;;;5075123;28;20637;-67
2022/11/16 11:35:39;;;;;;;1.83;0.90;;;12.10;99.90;;;;;;5074761;28;20173;-68
2022/11/16 11:38:13;;;;;;;2.60;1.20;;;12.20;99.90;;;;;;5074886;28;20199;-68
2022/11/16 11:40:59;;;;;;;1.13;0.90;;;12.10;99.90;;;;;;5075125;28;20173;-70
2022/11/16 11:43:28;;;;;;;1.13;0.83;;;12.00;99.90;;;;;;5074982;28;20195;-68
2022/11/16 11:46:26;;;;;;;1.53;0.97;;;12.00;99.90;;;;;;5074972;28;20165;-69
2022/11/16 11:49:05;;;;;;;1.20;0.90;;;12.00;99.90;;;;;;5074985;28;20176;-69
2022/11/16 11:51:41;;;;;;;2.40;0.90;;;12.10;99.90;;;;;;5074879;28;20670;-67
2022/11/16 11:54:22;;;;;;;1.87;1.10;;;12.10;99.90;;;;;;5075038;28;20168;-70
2022/11/16 11:56:50;;;;;;;3.67;1.40;;;12.10;99.90;;;;;;5074831;28;20187;-71
2022/11/16 11:59:24;;;;;;;1.10;1.00;;;12.20;99.90;;;;;;5074492;28;20218;-68
2022/11/16 12:02:01;;;;;;;2.20;0.70;;;12.20;99.90;;;;;;5074405;28;20534;-68
2022/11/16 12:04:52;;;;;;;1.10;0.70;;;12.30;99.90;;;;;;5074494;28;20234;-67
2022/11/16 12:07:43;;;;;;;1.80;0.70;;;12.30;99.90;;;;;;5074210;28;20236;-68
2022/11/16 12:10:38;;;;;;;0.93;0.70;;;12.40;99.90;;;;;;5074468;28;20177;-71
2022/11/16 12:13:31;;;;;;;0.83;0.63;;;12.40;99.90;;;;;;5074409;28;20604;-72
2022/11/16 12:16:33;;;;;;;1.50;0.80;;;12.40;99.90;;;;;;5066238;28;20220;-72
2022/11/16 12:19:44;;;;;;;2.00;1.00;;;12.30;99.90;;;;;;5074026;28;20205;-72
2022/11/16 12:22:47;;;;;;;0.97;0.67;;;12.30;99.90;;;;;;5073868;28;20254;-72
2022/11/16 12:25:39;;;;;;;2.53;0.70;;;12.20;99.90;;;;;;5074508;28;20659;-70
2022/11/16 12:28:25;;;;;;;1.23;0.70;;;12.20;99.90;;;;;;5074008;28;20182;-72
2022/11/16 12:31:23;;;;;;;0.70;0.70;;;12.20;99.90;;;;;;5074291;28;20200;-70
2022/11/16 12:34:34;;;;;;;0.80;0.50;;;12.10;99.90;;;;;;5074353;28;20183;-72
2022/11/16 12:37:32;;;;;;;1.03;0.60;;;12.00;99.90;;;;;;5073797;28;20275;-70
2022/11/16 12:40:12;;;;;;;0.60;0.60;;;12.00;99.90;;;;;;5073984;28;20217;-69
2022/11/16 12:42:52;;;;;;;0.83;0.70;;;12.00;99.90;;;;;;5073849;28;20707;-71
2022/11/16 12:45:32;;;;;;;2.33;0.87;;;12.10;99.90;;;;;;5073635;28;20190;-70
2022/11/16 12:48:28;;;;;;;2.43;0.60;;;12.20;99.90;;;;;;5073930;28;20181;-68
2022/11/16 12:51:23;;;;;;;0.93;0.60;;;12.10;99.90;;;;;;5073763;28;20222;-71
2022/11/16 12:54:09;;;;;;;2.13;0.60;;;12.20;99.90;;;;;;5074229;28;20183;-72
2022/11/16 12:56:40;;;;;;;2.77;0.80;;;12.20;99.90;;;;;;5074317;28;20182;-71
2022/11/16 12:59:44;;;;;;;1.57;0.70;;;12.10;99.90;;;;;;5073598;28;20200;-73
2022/11/16 13:02:27;;;;;;;0.70;0.60;;;12.10;99.90;;;;;;5073595;28;20663;-72
2022/11/16 13:05:03;;;;;;;1.80;0.70;;;12.00;99.90;;;;;;5073763;28;20201;-72
2022/11/16 13:07:45;;;;;;;1.07;0.70;;;11.90;99.90;;;;;;5073548;28;20639;-71
2022/11/16 13:10:29;;;;;;;0.97;0.67;;;11.80;99.90;;;;;;5073381;28;20177;-72
2022/11/16 13:13:04;;;;;;;1.23;0.63;;;11.70;99.90;;;;;;5073453;28;20178;-71
2022/11/16 13:15:41;;;;;;;0.87;0.70;;;11.60;99.90;;;;;;5073329;28;20569;-71
2022/11/16 13:18:15;;;;;;;0.70;0.70;;;11.50;99.90;;;;;;5073354;28;20232;-72
2022/11/16 13:20:45;;;;;;;1.27;0.90;;;11.50;99.90;;;;;;5072770;28;20178;-69
2022/11/16 13:23:31;;;;;;;1.00;0.90;;;11.40;99.90;;;;;;5073819;28;20244;-69
2022/11/16 13:26:23;;;;;;;2.03;0.70;;;11.40;99.90;;;;;;5073607;28;20174;-68
2022/11/16 13:29:08;;;;;;;0.90;0.77;;;11.30;99.90;;;;;;5073305;28;20195;-69
2022/11/16 13:31:46;;;;;;;2.37;1.17;;;11.30;99.90;;;;;;5073280;28;20170;-67
2022/11/16 13:34:28;;;;;;;1.20;0.70;;;11.20;99.90;;;;;;5073427;28;20185;-67
2022/11/16 13:36:56;;;;;;;2.37;0.70;;;11.10;99.90;;;;;;5073119;28;20175;-68
2022/11/16 13:39:51;;;;;;;1.10;1.00;;;11.10;99.90;;;;;;5073058;28;20711;-67
2022/11/16 13:42:18;;;;;;;1.87;0.90;;;11.10;99.90;;;;;;5073036;28;20209;-67
2022/11/16 13:44:46;;;;;;;0.90;0.60;;;11.10;99.90;;;;;;5073117;28;20588;-67
2022/11/16 13:47:31;;;;;;;0.80;0.80;;;11.10;99.90;;;;;;5073008;28;20262;-68
2022/11/16 13:50:05;;;;;;;1.17;0.90;;;11.00;99.90;;;;;;5073205;28;20536;-68
2022/11/16 13:53:06;;;;;;;1.20;0.70;;;11.00;99.90;;;;;;5073123;28;20640;-68
2022/11/16 13:55:40;;;;;;;2.03;0.90;;;10.80;99.90;;;;;;5069184;28;20216;-68
2022/11/16 13:58:09;;;;;;;3.30;0.90;;;10.80;99.90;;;;;;5072828;28;20686;-71
2022/11/16 14:00:39;;;;;;;1.37;0.63;;;10.70;99.90;;;;;;5072847;28;20166;-72
2022/11/16 14:03:16;;;;;;;1.40;0.80;;;10.60;99.90;;;;;;5072593;28;20218;-71
2022/11/16 14:05:46;;;;;;;3.10;1.10;;;10.50;99.90;;;;;;5072963;28;20658;-70
2022/11/16 14:08:20;;;;;;;0.90;0.80;;;10.50;99.90;;;;;;5073324;28;20180;-71
2022/11/16 14:10:50;;;;;;;1.17;0.70;;;10.40;99.90;;;;;;5073121;28;20176;-72
2022/11/16 14:13:45;;;;;;;1.53;0.90;;;10.40;99.90;;;;;;5088399;28;20522;-71